sensor_id;sensor_type;location;lat;lon;timestamp;P1;durP1;ratioP1;P2;durP2;ratioP2
28822;SDS011;15961;54.678;9.110;2022-10-26T00:01:17;78.53;;;27.85;;
28822;SDS011;15961;54.678;9.110;2022-10-26T00:03:43;93.88;;;30.92;;
28822;SDS011;15961;54.678;9.110;2022-10-26T00:06:11;72.15;;;27.38;;
28822;SDS011;15961;54.678;9.110;2022-10-26T00:08:38;62.80;;;25.17;;
28822;SDS011;15961;54.678;9.110;2022-10-26T00:11:05;100.40;;;32.47;;
28822;SDS011;15961;54.678;9.110;2022-10-26T00:13:31;70.13;;;29.42;;
28822;SDS011;15961;54.678;9.110;2022-10-26T00:15:58;89.93;;;30.30;;
28822;SDS011;15961;54.678;9.110;2022-10-26T00:18:24;99.38;;;33.38;;
28822;SDS011;15961;54.678;9.110;2022-10-26T00:20:49;84.80;;;32.92;;
28822;SDS011;15961;54.678;9.110;2022-10-26T00:23:15;93.50;;;32.00;;
28822;SDS011;15961;54.678;9.110;2022-10-26T00:25:41;74.28;;;30.50;;
28822;SDS011;15961;54.678;9.110;2022-10-26T00:28:06;92.45;;;31.25;;
28822;SDS011;15961;54.678;9.110;2022-10-26T00:30:37;81.38;;;30.00;;
28822;SDS011;15961;54.678;9.110;2022-10-26T00:33:03;63.92;;;27.65;;
28822;SDS011;15961;54.678;9.110;2022-10-26T00:35:29;79.25;;;31.25;;
28822;SDS011;15961;54.678;9.110;2022-10-26T00:37:54;81.00;;;30.35;;
28822;SDS011;15961;54.678;9.110;2022-10-26T00:40:20;70.05;;;31.17;;
28822;SDS011;15961;54.678;9.110;2022-10-26T00:42:46;101.22;;;32.95;;
28822;SDS011;15961;54.678;9.110;2022-10-26T00:48:19;106.47;;;35.10;;
28822;SDS011;15961;54.678;9.110;2022-10-26T00:50:41;97.15;;;30.90;;
28822;SDS011;15961;54.678;9.110;2022-10-26T00:53:10;91.93;;;32.92;;
28822;SDS011;15961;54.678;9.110;2022-10-26T00:55:37;112.53;;;36.85;;
28822;SDS011;15961;54.678;9.110;2022-10-26T00:58:08;96.93;;;34.00;;
28822;SDS011;15961;54.678;9.110;2022-10-26T01:00:34;100.47;;;33.88;;
28822;SDS011;15961;54.678;9.110;2022-10-26T01:03:03;121.38;;;39.17;;
28822;SDS011;15961;54.678;9.110;2022-10-26T01:05:30;109.88;;;35.38;;
28822;SDS011;15961;54.678;9.110;2022-10-26T01:07:57;92.90;;;33.35;;
28822;SDS011;15961;54.678;9.110;2022-10-26T01:10:24;92.32;;;34.25;;
28822;SDS011;15961;54.678;9.110;2022-10-26T01:12:51;82.65;;;34.65;;
28822;SDS011;15961;54.678;9.110;2022-10-26T01:15:19;84.38;;;33.75;;
28822;SDS011;15961;54.678;9.110;2022-10-26T01:17:53;91.45;;;34.20;;
28822;SDS011;15961;54.678;9.110;2022-10-26T01:23:23;112.07;;;36.53;;
28822;SDS011;15961;54.678;9.110;2022-10-26T01:31:49;122.45;;;39.42;;
28822;SDS011;15961;54.678;9.110;2022-10-26T01:37:11;94.78;;;36.17;;
28822;SDS011;15961;54.678;9.110;2022-10-26T01:39:46;130.98;;;41.63;;
28822;SDS011;15961;54.678;9.110;2022-10-26T01:42:16;132.63;;;41.42;;
28822;SDS011;15961;54.678;9.110;2022-10-26T01:44:46;124.70;;;41.50;;
28822;SDS011;15961;54.678;9.110;2022-10-26T01:47:17;113.97;;;40.10;;
28822;SDS011;15961;54.678;9.110;2022-10-26T01:49:46;108.57;;;39.53;;
28822;SDS011;15961;54.678;9.110;2022-10-26T01:52:19;131.52;;;39.35;;
28822;SDS011;15961;54.678;9.110;2022-10-26T01:54:45;123.07;;;41.38;;
28822;SDS011;15961;54.678;9.110;2022-10-26T01:57:11;107.97;;;39.75;;
28822;SDS011;15961;54.678;9.110;2022-10-26T01:59:43;139.40;;;43.75;;
28822;SDS011;15961;54.678;9.110;2022-10-26T02:10:53;134.35;;;41.70;;
28822;SDS011;15961;54.678;9.110;2022-10-26T02:16:20;131.82;;;45.03;;
28822;SDS011;15961;54.678;9.110;2022-10-26T02:18:51;132.95;;;43.28;;
28822;SDS011;15961;54.678;9.110;2022-10-26T02:21:28;137.68;;;43.50;;
28822;SDS011;15961;54.678;9.110;2022-10-26T02:24:00;104.38;;;38.15;;
28822;SDS011;15961;54.678;9.110;2022-10-26T02:26:27;101.03;;;37.72;;
28822;SDS011;15961;54.678;9.110;2022-10-26T02:28:55;142.55;;;42.70;;
28822;SDS011;15961;54.678;9.110;2022-10-26T02:31:24;118.63;;;40.70;;
28822;SDS011;15961;54.678;9.110;2022-10-26T02:33:51;132.00;;;43.15;;
28822;SDS011;15961;54.678;9.110;2022-10-26T02:36:24;123.40;;;40.65;;
28822;SDS011;15961;54.678;9.110;2022-10-26T02:38:52;137.88;;;41.60;;
28822;SDS011;15961;54.678;9.110;2022-10-26T02:41:19;111.68;;;39.25;;
28822;SDS011;15961;54.678;9.110;2022-10-26T02:43:49;110.40;;;40.72;;
28822;SDS011;15961;54.678;9.110;2022-10-26T02:46:43;131.40;;;42.22;;
28822;SDS011;15961;54.678;9.110;2022-10-26T02:49:09;102.72;;;35.78;;
28822;SDS011;15961;54.678;9.110;2022-10-26T02:51:38;100.15;;;35.70;;
28822;SDS011;15961;54.678;9.110;2022-10-26T02:56:59;72.75;;;29.70;;
28822;SDS011;15961;54.678;9.110;2022-10-26T02:59:29;78.13;;;30.25;;
28822;SDS011;15961;54.678;9.110;2022-10-26T03:01:58;85.57;;;32.85;;
28822;SDS011;15961;54.678;9.110;2022-10-26T03:04:28;75.88;;;31.55;;
28822;SDS011;15961;54.678;9.110;2022-10-26T03:06:55;70.95;;;31.10;;
28822;SDS011;15961;54.678;9.110;2022-10-26T03:09:20;81.45;;;32.28;;
28822;SDS011;15961;54.678;9.110;2022-10-26T03:11:46;102.20;;;36.83;;
28822;SDS011;15961;54.678;9.110;2022-10-26T03:14:12;97.43;;;36.42;;
28822;SDS011;15961;54.678;9.110;2022-10-26T03:16:37;108.70;;;37.25;;
28822;SDS011;15961;54.678;9.110;2022-10-26T03:19:03;102.90;;;36.58;;
28822;SDS011;15961;54.678;9.110;2022-10-26T03:21:28;101.40;;;35.75;;
28822;SDS011;15961;54.678;9.110;2022-10-26T03:23:54;107.47;;;35.95;;
28822;SDS011;15961;54.678;9.110;2022-10-26T03:26:19;91.65;;;35.13;;
28822;SDS011;15961;54.678;9.110;2022-10-26T03:28:45;85.43;;;34.58;;
28822;SDS011;15961;54.678;9.110;2022-10-26T03:31:10;88.80;;;34.50;;
28822;SDS011;15961;54.678;9.110;2022-10-26T03:33:36;91.15;;;33.40;;
28822;SDS011;15961;54.678;9.110;2022-10-26T03:36:02;84.32;;;32.85;;
28822;SDS011;15961;54.678;9.110;2022-10-26T03:38:27;77.13;;;29.63;;
28822;SDS011;15961;54.678;9.110;2022-10-26T03:40:53;92.03;;;35.05;;
28822;SDS011;15961;54.678;9.110;2022-10-26T03:43:18;84.82;;;31.80;;
28822;SDS011;15961;54.678;9.110;2022-10-26T03:45:44;94.85;;;34.00;;
28822;SDS011;15961;54.678;9.110;2022-10-26T03:48:10;83.10;;;32.45;;
28822;SDS011;15961;54.678;9.110;2022-10-26T03:50:35;78.63;;;33.40;;
28822;SDS011;15961;54.678;9.110;2022-10-26T03:53:01;111.80;;;35.05;;
28822;SDS011;15961;54.678;9.110;2022-10-26T03:55:26;134.57;;;41.30;;
28822;SDS011;15961;54.678;9.110;2022-10-26T03:57:52;109.20;;;36.35;;
28822;SDS011;15961;54.678;9.110;2022-10-26T04:00:17;109.80;;;39.60;;
28822;SDS011;15961;54.678;9.110;2022-10-26T04:02:43;112.53;;;37.78;;
28822;SDS011;15961;54.678;9.110;2022-10-26T04:05:12;130.38;;;40.40;;
28822;SDS011;15961;54.678;9.110;2022-10-26T04:07:38;137.85;;;44.13;;
28822;SDS011;15961;54.678;9.110;2022-10-26T04:10:04;127.38;;;39.53;;
28822;SDS011;15961;54.678;9.110;2022-10-26T04:12:30;119.85;;;38.70;;
28822;SDS011;15961;54.678;9.110;2022-10-26T04:14:55;109.10;;;36.88;;
28822;SDS011;15961;54.678;9.110;2022-10-26T04:17:24;126.28;;;37.72;;
28822;SDS011;15961;54.678;9.110;2022-10-26T04:19:49;109.60;;;37.33;;
28822;SDS011;15961;54.678;9.110;2022-10-26T04:22:15;116.35;;;34.17;;
28822;SDS011;15961;54.678;9.110;2022-10-26T04:24:40;76.93;;;31.83;;
28822;SDS011;15961;54.678;9.110;2022-10-26T04:27:06;191.32;;;40.08;;
28822;SDS011;15961;54.678;9.110;2022-10-26T04:29:31;75.30;;;29.80;;
28822;SDS011;15961;54.678;9.110;2022-10-26T04:31:57;119.95;;;28.90;;
28822;SDS011;15961;54.678;9.110;2022-10-26T04:34:22;67.20;;;31.08;;
28822;SDS011;15961;54.678;9.110;2022-10-26T04:36:48;90.43;;;31.23;;
28822;SDS011;15961;54.678;9.110;2022-10-26T04:39:13;129.30;;;32.22;;
28822;SDS011;15961;54.678;9.110;2022-10-26T04:41:39;88.75;;;33.28;;
28822;SDS011;15961;54.678;9.110;2022-10-26T04:44:05;187.82;;;38.70;;
28822;SDS011;15961;54.678;9.110;2022-10-26T04:46:30;103.63;;;34.78;;
28822;SDS011;15961;54.678;9.110;2022-10-26T04:48:56;103.82;;;32.22;;
28822;SDS011;15961;54.678;9.110;2022-10-26T04:51:21;106.30;;;33.50;;
28822;SDS011;15961;54.678;9.110;2022-10-26T04:53:47;86.68;;;31.88;;
28822;SDS011;15961;54.678;9.110;2022-10-26T04:56:12;121.03;;;37.13;;
28822;SDS011;15961;54.678;9.110;2022-10-26T04:58:38;94.15;;;34.35;;
28822;SDS011;15961;54.678;9.110;2022-10-26T05:01:03;122.22;;;37.17;;
28822;SDS011;15961;54.678;9.110;2022-10-26T05:03:29;83.15;;;32.20;;
28822;SDS011;15961;54.678;9.110;2022-10-26T05:05:56;108.38;;;36.83;;
28822;SDS011;15961;54.678;9.110;2022-10-26T05:08:23;110.20;;;38.92;;
28822;SDS011;15961;54.678;9.110;2022-10-26T05:10:49;118.18;;;38.97;;
28822;SDS011;15961;54.678;9.110;2022-10-26T05:13:15;114.00;;;40.28;;
28822;SDS011;15961;54.678;9.110;2022-10-26T05:15:41;163.57;;;43.38;;
28822;SDS011;15961;54.678;9.110;2022-10-26T05:18:06;211.90;;;41.03;;
28822;SDS011;15961;54.678;9.110;2022-10-26T05:20:33;159.35;;;40.28;;
28822;SDS011;15961;54.678;9.110;2022-10-26T05:23:03;143.10;;;41.80;;
28822;SDS011;15961;54.678;9.110;2022-10-26T05:25:32;113.72;;;38.13;;
28822;SDS011;15961;54.678;9.110;2022-10-26T05:28:00;106.95;;;37.33;;
28822;SDS011;15961;54.678;9.110;2022-10-26T05:30:28;97.95;;;36.28;;
28822;SDS011;15961;54.678;9.110;2022-10-26T05:32:57;97.47;;;36.47;;
28822;SDS011;15961;54.678;9.110;2022-10-26T05:35:25;99.88;;;36.72;;
28822;SDS011;15961;54.678;9.110;2022-10-26T05:37:51;94.53;;;36.95;;
28822;SDS011;15961;54.678;9.110;2022-10-26T05:40:17;85.50;;;30.13;;
28822;SDS011;15961;54.678;9.110;2022-10-26T05:42:43;64.85;;;25.20;;
28822;SDS011;15961;54.678;9.110;2022-10-26T05:45:09;46.88;;;22.13;;
28822;SDS011;15961;54.678;9.110;2022-10-26T05:47:38;37.00;;;18.70;;
28822;SDS011;15961;54.678;9.110;2022-10-26T05:50:05;38.03;;;17.48;;
28822;SDS011;15961;54.678;9.110;2022-10-26T05:52:42;40.15;;;17.23;;
28822;SDS011;15961;54.678;9.110;2022-10-26T05:55:10;31.83;;;16.75;;
28822;SDS011;15961;54.678;9.110;2022-10-26T05:57:40;31.08;;;15.13;;
28822;SDS011;15961;54.678;9.110;2022-10-26T06:00:09;27.10;;;16.30;;
28822;SDS011;15961;54.678;9.110;2022-10-26T06:05:21;32.45;;;18.20;;
28822;SDS011;15961;54.678;9.110;2022-10-26T06:07:50;30.33;;;17.02;;
28822;SDS011;15961;54.678;9.110;2022-10-26T06:10:16;26.48;;;16.05;;
28822;SDS011;15961;54.678;9.110;2022-10-26T06:12:43;25.48;;;15.13;;
28822;SDS011;15961;54.678;9.110;2022-10-26T06:15:12;28.73;;;16.05;;
28822;SDS011;15961;54.678;9.110;2022-10-26T06:18:04;36.75;;;18.20;;
28822;SDS011;15961;54.678;9.110;2022-10-26T06:31:25;42.85;;;18.45;;
28822;SDS011;15961;54.678;9.110;2022-10-26T06:33:52;53.15;;;20.08;;
28822;SDS011;15961;54.678;9.110;2022-10-26T06:36:24;43.25;;;20.02;;
28822;SDS011;15961;54.678;9.110;2022-10-26T06:38:54;35.60;;;19.90;;
28822;SDS011;15961;54.678;9.110;2022-10-26T06:41:29;32.75;;;18.00;;
28822;SDS011;15961;54.678;9.110;2022-10-26T06:43:57;33.33;;;19.38;;
28822;SDS011;15961;54.678;9.110;2022-10-26T06:51:42;61.33;;;22.17;;
28822;SDS011;15961;54.678;9.110;2022-10-26T06:57:14;52.33;;;24.35;;
28822;SDS011;15961;54.678;9.110;2022-10-26T06:59:48;53.13;;;25.33;;
28822;SDS011;15961;54.678;9.110;2022-10-26T07:02:19;52.13;;;23.45;;
28822;SDS011;15961;54.678;9.110;2022-10-26T07:04:46;58.17;;;25.95;;
28822;SDS011;15961;54.678;9.110;2022-10-26T07:07:13;70.32;;;25.85;;
28822;SDS011;15961;54.678;9.110;2022-10-26T07:09:46;51.42;;;25.80;;
28822;SDS011;15961;54.678;9.110;2022-10-26T07:12:11;54.83;;;23.90;;
28822;SDS011;15961;54.678;9.110;2022-10-26T07:14:37;68.63;;;26.73;;
28822;SDS011;15961;54.678;9.110;2022-10-26T07:17:03;53.85;;;26.08;;
28822;SDS011;15961;54.678;9.110;2022-10-26T07:19:29;65.60;;;27.48;;
28822;SDS011;15961;54.678;9.110;2022-10-26T07:21:55;69.68;;;28.63;;
28822;SDS011;15961;54.678;9.110;2022-10-26T07:24:23;56.28;;;25.45;;
28822;SDS011;15961;54.678;9.110;2022-10-26T07:26:49;68.90;;;29.40;;
28822;SDS011;15961;54.678;9.110;2022-10-26T07:29:14;72.20;;;28.08;;
28822;SDS011;15961;54.678;9.110;2022-10-26T07:31:42;68.88;;;28.73;;
28822;SDS011;15961;54.678;9.110;2022-10-26T07:34:07;61.95;;;27.13;;
28822;SDS011;15961;54.678;9.110;2022-10-26T07:36:33;64.75;;;28.80;;
28822;SDS011;15961;54.678;9.110;2022-10-26T07:39:00;70.38;;;27.00;;
28822;SDS011;15961;54.678;9.110;2022-10-26T07:41:27;79.80;;;31.95;;
28822;SDS011;15961;54.678;9.110;2022-10-26T07:43:52;71.35;;;28.55;;
28822;SDS011;15961;54.678;9.110;2022-10-26T07:46:18;75.57;;;28.58;;
28822;SDS011;15961;54.678;9.110;2022-10-26T07:48:43;73.70;;;30.30;;
28822;SDS011;15961;54.678;9.110;2022-10-26T07:51:09;84.78;;;32.88;;
28822;SDS011;15961;54.678;9.110;2022-10-26T07:53:34;94.07;;;33.50;;
28822;SDS011;15961;54.678;9.110;2022-10-26T07:56:00;73.38;;;31.27;;
28822;SDS011;15961;54.678;9.110;2022-10-26T07:58:25;82.47;;;31.83;;
28822;SDS011;15961;54.678;9.110;2022-10-26T08:00:52;91.00;;;31.48;;
28822;SDS011;15961;54.678;9.110;2022-10-26T08:03:18;96.65;;;34.35;;
28822;SDS011;15961;54.678;9.110;2022-10-26T08:05:47;70.88;;;29.55;;
28822;SDS011;15961;54.678;9.110;2022-10-26T08:08:15;76.13;;;30.73;;
28822;SDS011;15961;54.678;9.110;2022-10-26T08:10:43;74.78;;;31.33;;
28822;SDS011;15961;54.678;9.110;2022-10-26T08:13:09;88.00;;;32.95;;
28822;SDS011;15961;54.678;9.110;2022-10-26T08:15:36;100.28;;;35.70;;
28822;SDS011;15961;54.678;9.110;2022-10-26T08:18:02;81.45;;;35.55;;
28822;SDS011;15961;54.678;9.110;2022-10-26T08:20:28;92.68;;;37.17;;
28822;SDS011;15961;54.678;9.110;2022-10-26T08:22:56;91.93;;;37.13;;
28822;SDS011;15961;54.678;9.110;2022-10-26T08:25:23;107.88;;;40.25;;
28822;SDS011;15961;54.678;9.110;2022-10-26T08:27:48;79.43;;;35.70;;
28822;SDS011;15961;54.678;9.110;2022-10-26T08:30:14;87.57;;;36.65;;
28822;SDS011;15961;54.678;9.110;2022-10-26T08:32:40;78.07;;;34.67;;
28822;SDS011;15961;54.678;9.110;2022-10-26T08:35:06;89.78;;;34.10;;
28822;SDS011;15961;54.678;9.110;2022-10-26T08:37:33;85.72;;;35.47;;
28822;SDS011;15961;54.678;9.110;2022-10-26T08:39:58;72.45;;;32.92;;
28822;SDS011;15961;54.678;9.110;2022-10-26T08:42:27;97.28;;;36.72;;
28822;SDS011;15961;54.678;9.110;2022-10-26T08:47:35;76.20;;;33.53;;
28822;SDS011;15961;54.678;9.110;2022-10-26T08:50:42;78.88;;;35.58;;
28822;SDS011;15961;54.678;9.110;2022-10-26T08:55:37;64.30;;;31.60;;
28822;SDS011;15961;54.678;9.110;2022-10-26T09:00:38;77.60;;;32.75;;
28822;SDS011;15961;54.678;9.110;2022-10-26T09:03:11;80.60;;;34.50;;
28822;SDS011;15961;54.678;9.110;2022-10-26T09:06:24;81.80;;;35.80;;
28822;SDS011;15961;54.678;9.110;2022-10-26T09:08:28;86.35;;;38.03;;
28822;SDS011;15961;54.678;9.110;2022-10-26T09:14:12;77.67;;;35.63;;
28822;SDS011;15961;54.678;9.110;2022-10-26T09:16:50;77.90;;;34.88;;
28822;SDS011;15961;54.678;9.110;2022-10-26T09:25:37;72.28;;;36.03;;
28822;SDS011;15961;54.678;9.110;2022-10-26T09:28:04;78.80;;;36.17;;
28822;SDS011;15961;54.678;9.110;2022-10-26T09:30:34;76.68;;;35.10;;
28822;SDS011;15961;54.678;9.110;2022-10-26T09:33:03;64.15;;;33.00;;
28822;SDS011;15961;54.678;9.110;2022-10-26T09:35:43;75.00;;;34.13;;
28822;SDS011;15961;54.678;9.110;2022-10-26T09:43:53;78.95;;;34.00;;
28822;SDS011;15961;54.678;9.110;2022-10-26T09:46:26;62.70;;;33.10;;
28822;SDS011;15961;54.678;9.110;2022-10-26T09:51:23;65.03;;;31.90;;
28822;SDS011;15961;54.678;9.110;2022-10-26T09:53:51;64.82;;;33.78;;
28822;SDS011;15961;54.678;9.110;2022-10-26T09:56:17;57.15;;;32.25;;
28822;SDS011;15961;54.678;9.110;2022-10-26T09:58:57;60.05;;;30.98;;
28822;SDS011;15961;54.678;9.110;2022-10-26T10:06:41;50.15;;;28.42;;
28822;SDS011;15961;54.678;9.110;2022-10-26T10:09:09;51.75;;;27.23;;
28822;SDS011;15961;54.678;9.110;2022-10-26T10:11:57;55.22;;;29.50;;
28822;SDS011;15961;54.678;9.110;2022-10-26T10:14:31;62.78;;;30.98;;
28822;SDS011;15961;54.678;9.110;2022-10-26T10:17:03;46.75;;;27.98;;
28822;SDS011;15961;54.678;9.110;2022-10-26T10:19:32;50.38;;;28.33;;
28822;SDS011;15961;54.678;9.110;2022-10-26T10:22:00;50.78;;;27.70;;
28822;SDS011;15961;54.678;9.110;2022-10-26T10:24:51;48.05;;;25.20;;
28822;SDS011;15961;54.678;9.110;2022-10-26T10:27:19;46.85;;;24.92;;
28822;SDS011;15961;54.678;9.110;2022-10-26T10:29:46;37.08;;;21.70;;
28822;SDS011;15961;54.678;9.110;2022-10-26T10:32:19;36.78;;;20.23;;
28822;SDS011;15961;54.678;9.110;2022-10-26T10:34:54;41.15;;;21.42;;
28822;SDS011;15961;54.678;9.110;2022-10-26T10:37:22;37.22;;;18.08;;
28822;SDS011;15961;54.678;9.110;2022-10-26T10:40:00;32.08;;;16.90;;
28822;SDS011;15961;54.678;9.110;2022-10-26T10:42:32;31.17;;;16.15;;
28822;SDS011;15961;54.678;9.110;2022-10-26T10:45:03;23.50;;;14.52;;
28822;SDS011;15961;54.678;9.110;2022-10-26T10:47:34;25.42;;;13.55;;
28822;SDS011;15961;54.678;9.110;2022-10-26T10:50:03;29.92;;;14.25;;
28822;SDS011;15961;54.678;9.110;2022-10-26T10:52:32;21.77;;;13.40;;
28822;SDS011;15961;54.678;9.110;2022-10-26T11:00:24;19.83;;;11.23;;
28822;SDS011;15961;54.678;9.110;2022-10-26T11:03:00;19.08;;;9.27;;
28822;SDS011;15961;54.678;9.110;2022-10-26T11:11:17;13.25;;;8.52;;
28822;SDS011;15961;54.678;9.110;2022-10-26T11:16:21;20.20;;;8.82;;
28822;SDS011;15961;54.678;9.110;2022-10-26T11:18:57;17.27;;;7.47;;
28822;SDS011;15961;54.678;9.110;2022-10-26T11:21:27;16.08;;;8.20;;
28822;SDS011;15961;54.678;9.110;2022-10-26T11:23:56;16.70;;;8.02;;
28822;SDS011;15961;54.678;9.110;2022-10-26T11:26:43;13.70;;;7.45;;
28822;SDS011;15961;54.678;9.110;2022-10-26T11:29:34;13.85;;;8.70;;
28822;SDS011;15961;54.678;9.110;2022-10-26T11:32:14;21.35;;;7.85;;
28822;SDS011;15961;54.678;9.110;2022-10-26T11:37:53;15.00;;;9.10;;
28822;SDS011;15961;54.678;9.110;2022-10-26T11:40:24;18.13;;;8.10;;
28822;SDS011;15961;54.678;9.110;2022-10-26T11:45:38;11.32;;;7.28;;
28822;SDS011;15961;54.678;9.110;2022-10-26T11:48:18;17.83;;;7.57;;
28822;SDS011;15961;54.678;9.110;2022-10-26T11:50:52;17.98;;;7.53;;
28822;SDS011;15961;54.678;9.110;2022-10-26T11:53:40;20.70;;;7.85;;
28822;SDS011;15961;54.678;9.110;2022-10-26T11:56:13;17.75;;;6.80;;
28822;SDS011;15961;54.678;9.110;2022-10-26T11:59:03;20.13;;;6.45;;
28822;SDS011;15961;54.678;9.110;2022-10-26T12:01:30;11.00;;;6.05;;
28822;SDS011;15961;54.678;9.110;2022-10-26T12:03:58;17.15;;;8.18;;
28822;SDS011;15961;54.678;9.110;2022-10-26T12:06:27;13.13;;;6.50;;
28822;SDS011;15961;54.678;9.110;2022-10-26T12:14:16;13.23;;;5.88;;
28822;SDS011;15961;54.678;9.110;2022-10-26T12:19:34;14.10;;;6.45;;
28822;SDS011;15961;54.678;9.110;2022-10-26T12:22:02;14.15;;;6.22;;
28822;SDS011;15961;54.678;9.110;2022-10-26T12:24:29;18.58;;;6.35;;
28822;SDS011;15961;54.678;9.110;2022-10-26T12:27:00;17.55;;;6.60;;
28822;SDS011;15961;54.678;9.110;2022-10-26T12:31:55;11.07;;;5.55;;
28822;SDS011;15961;54.678;9.110;2022-10-26T12:34:55;11.93;;;5.97;;
28822;SDS011;15961;54.678;9.110;2022-10-26T12:37:20;16.02;;;5.10;;
28822;SDS011;15961;54.678;9.110;2022-10-26T12:39:52;15.95;;;5.05;;
28822;SDS011;15961;54.678;9.110;2022-10-26T12:52:37;7.30;;;4.55;;
28822;SDS011;15961;54.678;9.110;2022-10-26T12:55:12;7.40;;;4.28;;
28822;SDS011;15961;54.678;9.110;2022-10-26T13:00:31;10.25;;;4.53;;
28822;SDS011;15961;54.678;9.110;2022-10-26T13:08:50;8.52;;;4.80;;
28822;SDS011;15961;54.678;9.110;2022-10-26T13:14:03;13.88;;;5.00;;
28822;SDS011;15961;54.678;9.110;2022-10-26T13:16:30;13.05;;;5.35;;
28822;SDS011;15961;54.678;9.110;2022-10-26T13:18:56;17.58;;;5.22;;
28822;SDS011;15961;54.678;9.110;2022-10-26T13:21:23;31.63;;;5.63;;
28822;SDS011;15961;54.678;9.110;2022-10-26T13:26:21;8.80;;;4.32;;
28822;SDS011;15961;54.678;9.110;2022-10-26T13:28:50;10.50;;;4.57;;
28822;SDS011;15961;54.678;9.110;2022-10-26T13:33:59;10.05;;;4.15;;
28822;SDS011;15961;54.678;9.110;2022-10-26T13:36:30;12.27;;;4.60;;
28822;SDS011;15961;54.678;9.110;2022-10-26T13:39:12;11.93;;;4.40;;
28822;SDS011;15961;54.678;9.110;2022-10-26T13:41:52;12.48;;;4.60;;
28822;SDS011;15961;54.678;9.110;2022-10-26T13:44:24;13.05;;;4.97;;
28822;SDS011;15961;54.678;9.110;2022-10-26T13:46:54;14.70;;;5.05;;
28822;SDS011;15961;54.678;9.110;2022-10-26T13:49:25;7.95;;;4.90;;
28822;SDS011;15961;54.678;9.110;2022-10-26T13:51:54;14.63;;;4.50;;
28822;SDS011;15961;54.678;9.110;2022-10-26T13:54:28;11.32;;;4.25;;
28822;SDS011;15961;54.678;9.110;2022-10-26T13:57:02;17.98;;;4.85;;
28822;SDS011;15961;54.678;9.110;2022-10-26T13:59:47;10.63;;;5.53;;
28822;SDS011;15961;54.678;9.110;2022-10-26T14:04:59;8.85;;;4.85;;
28822;SDS011;15961;54.678;9.110;2022-10-26T14:07:32;13.32;;;4.57;;
28822;SDS011;15961;54.678;9.110;2022-10-26T14:10:19;16.73;;;5.47;;
28822;SDS011;15961;54.678;9.110;2022-10-26T14:12:49;11.52;;;5.25;;
28822;SDS011;15961;54.678;9.110;2022-10-26T14:15:15;10.60;;;4.95;;
28822;SDS011;15961;54.678;9.110;2022-10-26T14:17:48;16.67;;;6.05;;
28822;SDS011;15961;54.678;9.110;2022-10-26T14:20:18;8.52;;;4.65;;
28822;SDS011;15961;54.678;9.110;2022-10-26T14:22:46;11.52;;;5.10;;
28822;SDS011;15961;54.678;9.110;2022-10-26T14:25:23;6.63;;;3.85;;
28822;SDS011;15961;54.678;9.110;2022-10-26T14:27:54;17.08;;;4.18;;
28822;SDS011;15961;54.678;9.110;2022-10-26T14:30:32;18.58;;;6.38;;
28822;SDS011;15961;54.678;9.110;2022-10-26T14:32:57;17.92;;;5.53;;
28822;SDS011;15961;54.678;9.110;2022-10-26T14:35:28;11.43;;;5.70;;
28822;SDS011;15961;54.678;9.110;2022-10-26T14:37:58;14.50;;;5.53;;
28822;SDS011;15961;54.678;9.110;2022-10-26T14:40:27;10.48;;;5.40;;
28822;SDS011;15961;54.678;9.110;2022-10-26T14:42:58;18.55;;;5.40;;
28822;SDS011;15961;54.678;9.110;2022-10-26T14:45:35;19.70;;;6.00;;
28822;SDS011;15961;54.678;9.110;2022-10-26T14:48:03;18.98;;;6.30;;
28822;SDS011;15961;54.678;9.110;2022-10-26T14:50:30;12.50;;;5.35;;
28822;SDS011;15961;54.678;9.110;2022-10-26T14:53:03;10.07;;;6.00;;
28822;SDS011;15961;54.678;9.110;2022-10-26T14:55:45;9.93;;;5.75;;
28822;SDS011;15961;54.678;9.110;2022-10-26T14:58:36;10.50;;;5.70;;
28822;SDS011;15961;54.678;9.110;2022-10-26T15:04:28;12.25;;;5.40;;
28822;SDS011;15961;54.678;9.110;2022-10-26T15:12:13;16.00;;;5.70;;
28822;SDS011;15961;54.678;9.110;2022-10-26T15:14:45;14.95;;;5.82;;
28822;SDS011;15961;54.678;9.110;2022-10-26T15:17:19;13.38;;;6.22;;
28822;SDS011;15961;54.678;9.110;2022-10-26T15:19:51;11.70;;;5.50;;
28822;SDS011;15961;54.678;9.110;2022-10-26T15:22:23;15.63;;;7.18;;
28822;SDS011;15961;54.678;9.110;2022-10-26T15:24:55;12.63;;;6.40;;
28822;SDS011;15961;54.678;9.110;2022-10-26T15:27:22;12.63;;;6.25;;
28822;SDS011;15961;54.678;9.110;2022-10-26T15:29:49;17.40;;;6.40;;
28822;SDS011;15961;54.678;9.110;2022-10-26T15:32:34;18.42;;;6.68;;
28822;SDS011;15961;54.678;9.110;2022-10-26T15:37:46;11.40;;;6.10;;
28822;SDS011;15961;54.678;9.110;2022-10-26T15:40:14;14.60;;;5.65;;
28822;SDS011;15961;54.678;9.110;2022-10-26T15:42:40;13.90;;;5.85;;
28822;SDS011;15961;54.678;9.110;2022-10-26T15:47:43;12.15;;;7.18;;
28822;SDS011;15961;54.678;9.110;2022-10-26T15:50:16;13.38;;;6.25;;
28822;SDS011;15961;54.678;9.110;2022-10-26T15:52:43;13.90;;;5.90;;
28822;SDS011;15961;54.678;9.110;2022-10-26T15:55:09;16.85;;;6.75;;
28822;SDS011;15961;54.678;9.110;2022-10-26T15:57:35;16.63;;;7.05;;
28822;SDS011;15961;54.678;9.110;2022-10-26T16:00:03;26.23;;;6.45;;
28822;SDS011;15961;54.678;9.110;2022-10-26T16:02:29;17.50;;;7.88;;
28822;SDS011;15961;54.678;9.110;2022-10-26T16:04:56;13.93;;;5.95;;
28822;SDS011;15961;54.678;9.110;2022-10-26T16:07:22;21.60;;;6.50;;
28822;SDS011;15961;54.678;9.110;2022-10-26T16:09:50;14.07;;;6.65;;
28822;SDS011;15961;54.678;9.110;2022-10-26T16:12:16;16.30;;;7.35;;
28822;SDS011;15961;54.678;9.110;2022-10-26T16:14:41;14.75;;;7.55;;
28822;SDS011;15961;54.678;9.110;2022-10-26T16:17:07;11.27;;;5.68;;
28822;SDS011;15961;54.678;9.110;2022-10-26T16:19:32;11.63;;;8.15;;
28822;SDS011;15961;54.678;9.110;2022-10-26T16:21:59;14.85;;;6.75;;
28822;SDS011;15961;54.678;9.110;2022-10-26T16:24:25;16.88;;;8.85;;
28822;SDS011;15961;54.678;9.110;2022-10-26T16:26:51;22.75;;;7.75;;
28822;SDS011;15961;54.678;9.110;2022-10-26T16:29:17;19.10;;;6.82;;
28822;SDS011;15961;54.678;9.110;2022-10-26T16:31:43;25.63;;;8.43;;
28822;SDS011;15961;54.678;9.110;2022-10-26T16:34:09;24.20;;;7.93;;
28822;SDS011;15961;54.678;9.110;2022-10-26T16:36:34;19.02;;;7.50;;
28822;SDS011;15961;54.678;9.110;2022-10-26T16:39:02;17.52;;;9.23;;
28822;SDS011;15961;54.678;9.110;2022-10-26T16:41:27;21.73;;;9.63;;
28822;SDS011;15961;54.678;9.110;2022-10-26T16:43:54;20.98;;;9.95;;
28822;SDS011;15961;54.678;9.110;2022-10-26T16:46:20;22.45;;;10.00;;
28822;SDS011;15961;54.678;9.110;2022-10-26T16:48:46;17.45;;;7.80;;
28822;SDS011;15961;54.678;9.110;2022-10-26T16:51:23;28.60;;;9.60;;
28822;SDS011;15961;54.678;9.110;2022-10-26T16:53:53;17.92;;;10.05;;
28822;SDS011;15961;54.678;9.110;2022-10-26T16:56:24;23.05;;;8.40;;
28822;SDS011;15961;54.678;9.110;2022-10-26T16:58:52;15.98;;;8.48;;
28822;SDS011;15961;54.678;9.110;2022-10-26T17:01:19;14.57;;;8.82;;
28822;SDS011;15961;54.678;9.110;2022-10-26T17:03:45;18.13;;;7.93;;
28822;SDS011;15961;54.678;9.110;2022-10-26T17:06:14;16.35;;;8.02;;
28822;SDS011;15961;54.678;9.110;2022-10-26T17:08:40;15.85;;;8.00;;
28822;SDS011;15961;54.678;9.110;2022-10-26T17:11:10;23.95;;;8.43;;